Time;durP1;ratioP1;P1;durP2;ratioP2;P2;SDS_P1;SDS_P2;PMS_P1;PMS_P2;Temp;Humidity;BMP_temperature;BMP_pressure;BME280_temperature;BME280_humidity;BME280_pressure;Samples;Min_cycle;Max_cycle;Signal;HPM_P1;HPM_P2
2023/01/08 00:01:49;;;;;;;5.60;5.20;;;6.90;99.90;;;;;;6122611;23;20406;-78
2023/01/08 00:04:19;;;;;;;6.30;5.90;;;6.90;99.90;;;;;;6097593;23;20392;-78
2023/01/08 00:06:45;;;;;;;5.70;5.35;;;6.90;99.90;;;;;;6120230;23;20458;-78
2023/01/08 00:09:12;;;;;;;5.93;5.53;;;6.80;99.90;;;;;;6095040;23;20375;-78
2023/01/08 00:11:39;;;;;;;5.25;4.95;;;6.80;99.90;;;;;;6122394;23;20375;-77
2023/01/08 00:14:06;;;;;;;5.35;5.05;;;6.80;99.90;;;;;;6095755;23;21254;-78
2023/01/08 00:16:33;;;;;;;5.38;4.97;;;6.80;99.90;;;;;;6122316;23;20843;-77
2023/01/08 00:19:00;;;;;;;5.65;5.25;;;6.80;99.90;;;;;;6096214;23;20384;-77
2023/01/08 00:21:27;;;;;;;5.90;5.50;;;6.80;99.90;;;;;;6122532;23;20491;-77
2023/01/08 00:23:54;;;;;;;4.97;4.68;;;6.90;99.90;;;;;;6096453;23;20414;-78
2023/01/08 00:26:21;;;;;;;5.43;5.03;;;6.90;99.90;;;;;;6096882;23;20752;-77
2023/01/08 00:28:48;;;;;;;4.80;4.50;;;6.90;99.90;;;;;;6121324;23;20438;-78
2023/01/08 00:31:15;;;;;;;5.35;4.95;;;6.80;99.90;;;;;;6122373;23;20367;-78
2023/01/08 00:33:42;;;;;;;4.40;4.10;;;6.80;99.90;;;;;;6120518;23;20448;-78
2023/01/08 00:36:15;;;;;;;4.60;4.32;;;6.80;99.90;;;;;;6121949;23;20396;-78
2023/01/08 00:38:42;;;;;;;4.72;4.43;;;6.80;99.90;;;;;;6122538;23;20874;-78
2023/01/08 00:41:11;;;;;;;5.40;5.00;;;6.80;99.90;;;;;;6096115;23;20372;-78
2023/01/08 00:43:38;;;;;;;4.93;4.63;;;6.70;99.90;;;;;;6122272;23;20387;-77
2023/01/08 00:46:06;;;;;;;4.97;4.68;;;6.70;99.90;;;;;;6120340;23;20757;-77
2023/01/08 00:48:37;;;;;;;5.40;5.05;;;6.70;99.90;;;;;;6122979;23;20390;-78
2023/01/08 00:51:06;;;;;;;4.90;4.60;;;6.70;99.90;;;;;;6120352;23;20385;-77
2023/01/08 00:53:36;;;;;;;5.00;4.70;;;6.70;99.90;;;;;;6095867;23;20383;-77
2023/01/08 00:56:07;;;;;;;4.65;4.40;;;6.70;99.90;;;;;;6096085;23;20379;-77
2023/01/08 00:58:34;;;;;;;4.80;4.50;;;6.70;99.90;;;;;;6096619;23;20823;-78
2023/01/08 01:01:01;;;;;;;5.90;5.50;;;6.70;99.90;;;;;;6119947;23;20380;-78
2023/01/08 01:03:28;;;;;;;5.40;5.10;;;6.70;99.90;;;;;;6120586;23;20754;-78
2023/01/08 01:06:04;;;;;;;5.38;5.07;;;6.60;99.90;;;;;;6095482;23;20419;-78
2023/01/08 01:08:32;;;;;;;4.60;4.30;;;6.60;99.90;;;;;;6096361;23;20450;-78
2023/01/08 01:10:59;;;;;;;4.75;4.45;;;6.60;99.90;;;;;;6120395;23;20470;-78
2023/01/08 01:13:26;;;;;;;4.93;4.63;;;6.70;99.90;;;;;;6122275;23;20432;-78
2023/01/08 01:16:00;;;;;;;4.82;4.53;;;6.70;99.90;;;;;;6121677;23;20376;-77
2023/01/08 01:18:27;;;;;;;4.35;4.15;;;6.60;99.90;;;;;;6095785;23;20371;-77
2023/01/08 01:20:54;;;;;;;4.93;4.63;;;6.70;99.90;;;;;;6120904;23;20380;-78
2023/01/08 01:23:21;;;;;;;5.35;4.95;;;6.70;99.90;;;;;;6121024;23;20712;-78
2023/01/08 01:25:48;;;;;;;4.78;4.47;;;6.70;99.90;;;;;;6120667;23;20379;-78
2023/01/08 01:28:15;;;;;;;5.43;5.13;;;6.70;99.90;;;;;;6095649;23;20428;-78
2023/01/08 01:30:42;;;;;;;4.70;4.43;;;6.70;99.90;;;;;;6123131;23;20396;-78
2023/01/08 01:33:09;;;;;;;4.90;4.60;;;6.70;99.90;;;;;;6096471;23;20380;-77
2023/01/08 01:35:36;;;;;;;5.00;4.70;;;6.70;99.90;;;;;;6096975;23;20380;-77
2023/01/08 01:38:03;;;;;;;5.10;4.80;;;6.70;99.90;;;;;;6121507;23;20399;-79
2023/01/08 01:40:30;;;;;;;4.68;4.38;;;6.70;99.90;;;;;;6097149;23;20391;-77
2023/01/08 01:42:57;;;;;;;4.78;4.47;;;6.70;99.90;;;;;;6097002;23;20372;-77
2023/01/08 01:45:30;;;;;;;4.53;4.32;;;6.70;99.90;;;;;;6121276;23;20396;-77
2023/01/08 01:48:01;;;;;;;4.28;4.05;;;6.70;99.90;;;;;;6097085;23;20383;-77
2023/01/08 01:50:42;;;;;;;4.32;4.13;;;6.70;99.90;;;;;;6096054;23;20697;-77
2023/01/08 01:53:19;;;;;;;4.20;4.00;;;6.70;99.90;;;;;;6095927;23;20400;-78
2023/01/08 01:55:47;;;;;;;4.35;4.15;;;6.70;99.90;;;;;;6122952;23;20701;-78
2023/01/08 01:58:24;;;;;;;4.47;4.28;;;6.70;99.90;;;;;;6121019;23;20410;-78
2023/01/08 02:00:52;;;;;;;4.95;4.65;;;6.80;99.90;;;;;;6097097;23;20443;-78
2023/01/08 02:36:29;;;;;;;4.45;4.20;;;6.70;99.90;;;;;;6116275;23;20514;-75
2023/01/08 02:38:59;;;;;;;4.78;4.47;;;6.80;99.90;;;;;;6118604;23;20435;-77
2023/01/08 02:41:52;;;;;;;4.88;4.53;;;6.80;99.90;;;;;;6096248;23;20376;-77
2023/01/08 02:44:33;;;;;;;4.72;4.43;;;6.70;99.90;;;;;;6095625;23;20447;-77
2023/01/08 02:47:04;;;;;;;4.65;4.38;;;6.70;99.90;;;;;;6095439;23;20380;-77
2023/01/08 02:49:35;;;;;;;4.57;4.28;;;6.70;99.90;;;;;;6122049;23;20462;-77
2023/01/08 02:52:04;;;;;;;5.00;4.70;;;6.70;99.90;;;;;;6095600;23;20431;-77
2023/01/08 02:54:34;;;;;;;4.27;4.07;;;6.70;99.90;;;;;;6095746;23;20425;-79
2023/01/08 02:57:09;;;;;;;4.68;4.40;;;6.70;99.90;;;;;;6096996;23;20397;-78
2023/01/08 02:59:39;;;;;;;4.38;4.18;;;6.70;99.90;;;;;;6098313;23;20379;-78
2023/01/08 03:02:06;;;;;;;4.20;4.00;;;6.70;99.90;;;;;;6091984;23;20857;-77
2023/01/08 03:04:42;;;;;;;4.30;4.10;;;6.60;99.90;;;;;;6069643;23;20853;-77
2023/01/08 03:07:09;;;;;;;4.73;4.43;;;6.60;99.90;;;;;;6068607;23;20377;-77
2023/01/08 03:09:36;;;;;;;5.25;4.93;;;6.60;99.90;;;;;;6093015;23;20406;-77
2023/01/08 03:12:24;;;;;;;4.47;4.28;;;6.60;99.90;;;;;;6068260;23;20386;-78
2023/01/08 03:15:03;;;;;;;4.93;4.63;;;6.60;99.90;;;;;;6068787;23;20698;-78
2023/01/08 03:17:34;;;;;;;5.07;4.78;;;6.60;99.90;;;;;;6068689;23;20421;-79
2023/01/08 03:20:17;;;;;;;5.03;4.72;;;6.60;99.90;;;;;;6069549;23;20430;-77
2023/01/08 03:22:47;;;;;;;4.88;4.57;;;6.50;99.90;;;;;;6067941;23;20397;-77
2023/01/08 03:25:16;;;;;;;5.00;4.70;;;6.50;99.90;;;;;;6069074;23;20462;-77
2023/01/08 03:27:47;;;;;;;4.90;4.60;;;6.50;99.90;;;;;;6068547;23;20370;-78
2023/01/08 03:30:17;;;;;;;5.00;4.70;;;6.50;99.90;;;;;;6069053;23;20718;-77
2023/01/08 03:32:45;;;;;;;4.80;4.50;;;6.50;99.90;;;;;;6068497;23;20369;-77
2023/01/08 03:35:16;;;;;;;4.82;4.53;;;6.50;99.90;;;;;;6069235;23;20441;-80
2023/01/08 03:37:51;;;;;;;5.30;5.00;;;6.50;99.90;;;;;;6068369;23;20374;-77
2023/01/08 03:40:34;;;;;;;5.35;5.05;;;6.50;99.90;;;;;;6068619;23;20381;-77
2023/01/08 03:43:01;;;;;;;5.20;4.80;;;6.50;99.90;;;;;;6068429;23;20405;-78
2023/01/08 03:45:30;;;;;;;4.97;4.68;;;6.50;99.90;;;;;;6068392;23;20675;-78
2023/01/08 03:47:59;;;;;;;4.80;4.50;;;6.50;99.90;;;;;;6068297;23;20428;-76
2023/01/08 03:50:29;;;;;;;4.97;4.65;;;6.50;99.90;;;;;;6069088;23;20382;-78
2023/01/08 03:52:55;;;;;;;5.50;5.10;;;6.50;99.90;;;;;;6068072;23;20374;-78
2023/01/08 03:55:26;;;;;;;5.20;4.90;;;6.50;99.90;;;;;;6069338;23;20384;-77
2023/01/08 03:57:53;;;;;;;5.10;4.80;;;6.50;99.90;;;;;;6093276;23;20377;-78
2023/01/08 04:00:20;;;;;;;4.68;4.38;;;6.50;99.90;;;;;;6091614;23;20381;-83
2023/01/08 04:02:46;;;;;;;5.10;4.80;;;6.50;99.90;;;;;;6068510;23;20377;-81
2023/01/08 04:05:13;;;;;;;5.20;4.90;;;6.50;99.90;;;;;;6068820;23;20386;-82
2023/01/08 04:07:40;;;;;;;4.55;4.25;;;6.50;99.90;;;;;;6068515;23;20440;-82
2023/01/08 04:10:07;;;;;;;5.00;4.70;;;6.50;99.90;;;;;;6069385;23;20412;-82
2023/01/08 04:12:34;;;;;;;4.45;4.15;;;6.50;99.90;;;;;;6069720;23;20409;-82
2023/01/08 04:15:01;;;;;;;4.57;4.28;;;6.50;99.90;;;;;;6068384;23;20488;-82
2023/01/08 04:17:28;;;;;;;4.38;4.18;;;6.50;99.90;;;;;;6069195;23;20402;-82
2023/01/08 04:19:55;;;;;;;5.20;4.90;;;6.50;99.90;;;;;;6068162;23;20449;-82
2023/01/08 04:22:22;;;;;;;5.13;4.83;;;6.40;99.90;;;;;;6069295;23;20495;-82
2023/01/08 04:24:49;;;;;;;5.47;5.18;;;6.40;99.90;;;;;;6068297;23;20461;-82
2023/01/08 04:27:15;;;;;;;5.18;4.88;;;6.40;99.90;;;;;;6094342;23;20370;-82
2023/01/08 04:29:42;;;;;;;4.95;4.65;;;6.40;99.90;;;;;;6068478;23;20780;-82
2023/01/08 04:32:09;;;;;;;5.22;4.93;;;6.40;99.90;;;;;;6069084;23;20365;-82
2023/01/08 04:34:36;;;;;;;5.38;4.97;;;6.40;99.90;;;;;;6068907;23;20416;-82
2023/01/08 04:37:03;;;;;;;5.03;4.72;;;6.30;99.90;;;;;;6067884;23;20746;-82
2023/01/08 04:39:30;;;;;;;4.68;4.40;;;6.30;99.90;;;;;;6068661;23;20380;-81
2023/01/08 04:41:57;;;;;;;5.15;4.85;;;6.30;99.90;;;;;;6068421;23;20714;-82
2023/01/08 04:44:24;;;;;;;5.20;4.90;;;6.30;99.90;;;;;;6068859;23;20785;-82
2023/01/08 04:46:51;;;;;;;4.95;4.65;;;6.30;99.90;;;;;;6067635;23;20373;-82
2023/01/08 04:49:18;;;;;;;4.80;4.50;;;6.30;99.90;;;;;;6069081;23;20373;-82
2023/01/08 04:51:45;;;;;;;5.32;5.03;;;6.20;99.90;;;;;;6067645;23;20433;-82
2023/01/08 04:54:12;;;;;;;4.65;4.35;;;6.20;99.90;;;;;;6093920;23;20377;-82
2023/01/08 04:56:39;;;;;;;4.97;4.68;;;6.20;99.90;;;;;;6093800;23;20378;-82
2023/01/08 04:59:05;;;;;;;4.47;4.25;;;6.20;99.90;;;;;;6067572;23;20876;-82
2023/01/08 05:01:32;;;;;;;4.80;4.50;;;6.10;99.90;;;;;;6068683;23;20369;-81
2023/01/08 05:04:02;;;;;;;4.30;4.10;;;6.10;99.90;;;;;;6068045;23;20695;-81
2023/01/08 05:06:30;;;;;;;4.40;4.20;;;6.10;99.90;;;;;;6068910;23;20402;-81
2023/01/08 05:08:57;;;;;;;4.50;4.20;;;6.10;99.90;;;;;;6067985;23;20409;-81
2023/01/08 05:11:25;;;;;;;4.22;3.92;;;6.10;99.90;;;;;;6092692;23;20377;-81
2023/01/08 05:13:52;;;;;;;4.65;4.38;;;6.10;99.90;;;;;;6067872;23;20369;-81
2023/01/08 05:16:20;;;;;;;4.63;4.32;;;6.10;99.90;;;;;;6093536;23;20377;-81
2023/01/08 05:18:47;;;;;;;4.93;4.63;;;6.10;99.90;;;;;;6067064;23;20833;-81
2023/01/08 05:21:14;;;;;;;4.40;4.20;;;6.10;99.90;;;;;;6067952;23;20901;-81
2023/01/08 05:23:45;;;;;;;4.60;4.30;;;6.10;99.90;;;;;;6068435;23;20381;-81
2023/01/08 05:26:12;;;;;;;4.43;4.13;;;6.10;99.90;;;;;;6067441;23;20427;-81
2023/01/08 05:28:39;;;;;;;4.35;4.13;;;6.10;99.90;;;;;;6068446;23;20392;-82
2023/01/08 05:31:06;;;;;;;4.50;4.20;;;6.10;99.90;;;;;;6067342;23;20405;-81
2023/01/08 05:33:33;;;;;;;4.28;4.07;;;6.20;99.90;;;;;;6068701;23;20381;-81
2023/01/08 05:36:00;;;;;;;4.33;4.13;;;6.20;99.90;;;;;;6067402;23;20751;-81
2023/01/08 05:38:26;;;;;;;4.43;4.22;;;6.20;99.90;;;;;;6068857;23;20393;-81
2023/01/08 05:40:53;;;;;;;4.45;4.25;;;6.20;99.90;;;;;;6067468;23;20390;-81
2023/01/08 05:43:20;;;;;;;4.30;4.10;;;6.20;99.90;;;;;;6068480;23;20374;-81
2023/01/08 05:45:47;;;;;;;4.40;4.20;;;6.20;99.90;;;;;;6068253;23;20378;-82
2023/01/08 05:48:14;;;;;;;4.65;4.35;;;6.20;99.90;;;;;;6067825;23;20370;-81
2023/01/08 05:50:41;;;;;;;4.07;3.88;;;6.20;99.90;;;;;;6068037;23;20374;-81
2023/01/08 05:53:08;;;;;;;4.15;3.95;;;6.20;99.90;;;;;;6067521;23;20373;-81
2023/01/08 05:55:36;;;;;;;3.95;3.75;;;6.20;99.90;;;;;;6068074;23;20687;-81
2023/01/08 05:58:04;;;;;;;4.20;3.90;;;6.20;99.90;;;;;;6067097;23;20412;-81
2023/01/08 06:00:33;;;;;;;3.88;3.67;;;6.20;99.90;;;;;;6068620;23;20751;-81
2023/01/08 06:03:00;;;;;;;4.00;3.80;;;6.20;99.90;;;;;;6066715;23;20713;-81
2023/01/08 06:05:28;;;;;;;4.43;4.22;;;6.20;99.90;;;;;;6068421;23;20389;-82
2023/01/08 06:07:56;;;;;;;4.78;4.47;;;6.30;99.90;;;;;;6067087;23;20411;-82
2023/01/08 06:10:23;;;;;;;4.90;4.60;;;6.20;99.90;;;;;;6067983;23;20431;-82
2023/01/08 06:12:50;;;;;;;4.70;4.40;;;6.30;99.90;;;;;;6068523;23;20389;-81
2023/01/08 06:15:17;;;;;;;4.93;4.63;;;6.30;99.90;;;;;;6067258;23;20389;-81
2023/01/08 06:17:44;;;;;;;6.13;5.70;;;6.30;99.90;;;;;;6068002;23;20745;-81
2023/01/08 06:20:11;;;;;;;5.10;4.80;;;6.30;99.90;;;;;;6067097;23;20753;-81
2023/01/08 06:22:39;;;;;;;5.60;5.20;;;6.30;99.90;;;;;;6068313;23;20385;-82
2023/01/08 06:25:06;;;;;;;5.47;5.07;;;6.40;99.90;;;;;;6067521;23;20377;-81
2023/01/08 06:27:33;;;;;;;5.85;5.45;;;6.40;99.90;;;;;;6068538;23;20470;-82
2023/01/08 06:30:00;;;;;;;4.90;4.60;;;6.40;99.90;;;;;;6068238;23;20833;-82
2023/01/08 06:32:26;;;;;;;5.35;4.95;;;6.40;99.90;;;;;;6070160;23;20416;-82
2023/01/08 06:34:53;;;;;;;4.87;4.57;;;6.50;99.90;;;;;;6069150;23;20466;-82
2023/01/08 06:37:20;;;;;;;4.53;4.22;;;6.40;99.90;;;;;;6095165;23;20424;-82
2023/01/08 06:39:47;;;;;;;4.18;3.97;;;6.40;99.90;;;;;;6069783;23;20377;-82
2023/01/08 06:42:14;;;;;;;4.10;3.90;;;6.40;99.90;;;;;;6068873;23;20437;-81
2023/01/08 06:44:41;;;;;;;3.97;3.77;;;6.30;99.90;;;;;;6094943;23;20683;-82
2023/01/08 06:47:08;;;;;;;4.38;4.13;;;6.30;99.90;;;;;;6068784;23;20397;-81
2023/01/08 06:49:35;;;;;;;4.32;4.13;;;6.30;99.90;;;;;;6070209;23;20448;-82
2023/01/08 06:52:02;;;;;;;4.35;4.07;;;6.20;99.90;;;;;;6068592;23;20382;-81
2023/01/08 06:54:28;;;;;;;3.53;3.33;;;6.20;99.90;;;;;;6069596;23;20374;-81
2023/01/08 06:56:55;;;;;;;3.97;3.70;;;6.20;99.90;;;;;;6068786;23;20373;-82
2023/01/08 06:59:22;;;;;;;3.95;3.75;;;6.30;99.90;;;;;;6069950;23;20378;-81
2023/01/08 07:01:49;;;;;;;3.78;3.58;;;6.30;99.90;;;;;;6069779;23;20838;-81
2023/01/08 07:04:17;;;;;;;3.78;3.58;;;6.30;99.90;;;;;;6092757;23;20405;-81
2023/01/08 07:06:44;;;;;;;4.47;4.28;;;6.30;99.90;;;;;;6069478;23;20842;-82
2023/01/08 07:09:12;;;;;;;4.30;4.10;;;6.30;99.90;;;;;;6068770;23;20373;-82
2023/01/08 07:11:41;;;;;;;4.18;3.88;;;6.20;99.90;;;;;;6069249;23;22271;-81
2023/01/08 07:14:08;;;;;;;4.05;3.85;;;6.20;99.90;;;;;;6068806;23;20864;-82
2023/01/08 07:16:36;;;;;;;4.00;3.80;;;6.20;99.90;;;;;;6070078;23;20444;-82
2023/01/08 07:19:03;;;;;;;4.35;4.15;;;6.20;99.90;;;;;;6068571;23;20391;-80
2023/01/08 07:21:30;;;;;;;4.10;3.90;;;6.20;99.90;;;;;;6070205;23;20388;-81
2023/01/08 07:23:58;;;;;;;3.70;3.50;;;6.20;99.90;;;;;;6070261;23;20409;-81
2023/01/08 07:26:25;;;;;;;3.70;3.50;;;6.20;99.90;;;;;;6069070;23;20374;-81
2023/01/08 07:28:52;;;;;;;3.72;3.53;;;6.20;99.90;;;;;;6069838;23;20388;-81
2023/01/08 07:31:19;;;;;;;3.80;3.60;;;6.20;99.90;;;;;;6068911;23;20435;-81
2023/01/08 07:33:46;;;;;;;4.38;4.07;;;6.20;99.90;;;;;;6069640;23;20429;-81
2023/01/08 07:36:14;;;;;;;4.15;3.95;;;6.20;99.90;;;;;;6068443;23;20452;-81
2023/01/08 07:38:42;;;;;;;4.07;3.88;;;6.20;99.90;;;;;;6069762;23;20432;-81
2023/01/08 07:41:08;;;;;;;4.25;4.05;;;6.20;99.90;;;;;;6068070;23;20384;-81
2023/01/08 07:43:35;;;;;;;4.00;3.80;;;6.20;99.90;;;;;;6095113;23;20751;-81
2023/01/08 07:46:02;;;;;;;5.22;4.93;;;6.30;99.90;;;;;;6069115;23;20388;-81
2023/01/08 07:48:30;;;;;;;4.72;4.43;;;6.30;99.90;;;;;;6069097;23;20373;-81
2023/01/08 07:51:05;;;;;;;5.03;4.73;;;6.30;99.90;;;;;;6094776;23;20385;-81
2023/01/08 07:53:32;;;;;;;4.43;4.22;;;6.30;99.90;;;;;;6068335;23;20385;-81
2023/01/08 07:56:07;;;;;;;4.77;4.50;;;6.30;99.90;;;;;;6069710;23;20405;-81
2023/01/08 07:58:34;;;;;;;4.78;4.47;;;6.30;99.90;;;;;;6068177;23;21220;-81
2023/01/08 08:01:03;;;;;;;4.50;4.30;;;6.30;99.90;;;;;;6094335;23;20393;-81
2023/01/08 08:03:29;;;;;;;4.53;4.32;;;6.40;99.90;;;;;;6067809;23;20385;-81
2023/01/08 08:05:59;;;;;;;5.00;4.70;;;6.40;99.90;;;;;;6069610;23;20384;-81
2023/01/08 08:08:26;;;;;;;4.00;3.80;;;6.30;99.90;;;;;;6068214;23;20386;-81
2023/01/08 08:10:53;;;;;;;4.53;4.22;;;6.30;99.90;;;;;;6069034;23;20436;-81
2023/01/08 08:13:20;;;;;;;4.28;4.07;;;6.30;99.90;;;;;;6068518;23;20377;-81
2023/01/08 08:15:47;;;;;;;4.72;4.43;;;6.30;99.90;;;;;;6068746;23;20703;-81
2023/01/08 08:18:14;;;;;;;5.18;4.88;;;6.30;99.90;;;;;;6068626;23;20400;-81
2023/01/08 08:20:41;;;;;;;5.35;5.05;;;6.30;99.90;;;;;;6069360;23;20392;-81
2023/01/08 08:23:13;;;;;;;6.35;5.95;;;6.40;99.90;;;;;;6069494;23;20738;-81
2023/01/08 08:25:41;;;;;;;8.23;7.68;;;6.40;99.90;;;;;;6068891;23;20372;-80
2023/01/08 08:28:10;;;;;;;8.37;7.80;;;6.30;99.90;;;;;;6093706;23;20389;-81
2023/01/08 08:30:37;;;;;;;7.07;6.68;;;6.40;99.90;;;;;;6067836;23;20388;-83
2023/01/08 08:33:08;;;;;;;7.70;7.20;;;6.40;99.90;;;;;;6068935;23;20388;-81
2023/01/08 08:35:35;;;;;;;7.03;6.57;;;6.40;99.90;;;;;;6092394;23;20460;-81
2023/01/08 08:38:03;;;;;;;6.75;6.35;;;6.40;99.90;;;;;;6068514;23;20386;-83
2023/01/08 08:40:30;;;;;;;7.63;7.13;;;6.50;99.90;;;;;;6091265;23;20373;-81
2023/01/08 08:43:02;;;;;;;7.07;6.47;;;6.50;99.90;;;;;;6068808;23;20377;-82
2023/01/08 08:45:29;;;;;;;6.30;5.90;;;6.60;99.90;;;;;;6066989;23;20678;-82
2023/01/08 08:47:56;;;;;;;6.00;5.60;;;6.60;99.90;;;;;;6068415;23;20385;-82
2023/01/08 08:50:23;;;;;;;6.03;5.63;;;6.60;99.90;;;;;;6067300;23;20381;-81
2023/01/08 08:52:50;;;;;;;6.35;5.95;;;6.60;99.90;;;;;;6068345;23;20405;-81
2023/01/08 08:55:17;;;;;;;6.20;5.80;;;6.60;99.90;;;;;;6066750;23;20409;-81
2023/01/08 08:57:45;;;;;;;5.82;5.43;;;6.60;99.90;;;;;;6067987;23;20369;-82
2023/01/08 09:00:13;;;;;;;5.43;5.13;;;6.60;99.90;;;;;;6067836;23;20381;-81
2023/01/08 09:02:40;;;;;;;5.85;5.45;;;6.60;99.90;;;;;;6067032;23;20373;-82
2023/01/08 09:05:07;;;;;;;5.50;5.20;;;6.60;99.90;;;;;;6068074;23;20456;-82
2023/01/08 09:07:34;;;;;;;6.50;6.10;;;6.60;99.90;;;;;;6067713;23;20829;-81
2023/01/08 09:10:02;;;;;;;7.05;6.55;;;6.60;99.90;;;;;;6094194;23;20384;-81
2023/01/08 09:12:29;;;;;;;7.33;6.83;;;6.60;99.90;;;;;;6067658;23;20403;-82
2023/01/08 09:14:56;;;;;;;7.97;7.38;;;6.60;99.90;;;;;;6068681;23;20448;-81
2023/01/08 09:17:26;;;;;;;8.10;7.50;;;6.60;99.90;;;;;;6090908;23;20381;-80
2023/01/08 09:19:53;;;;;;;8.18;7.50;;;6.60;99.90;;;;;;6092301;23;20377;-81
2023/01/08 09:22:20;;;;;;;7.97;7.38;;;6.60;99.90;;;;;;6068081;23;20385;-81
2023/01/08 09:24:47;;;;;;;7.43;6.93;;;6.50;99.90;;;;;;6066925;23;20404;-81
2023/01/08 09:27:14;;;;;;;7.47;6.97;;;6.60;99.90;;;;;;6067805;23;20373;-81
2023/01/08 09:29:41;;;;;;;6.18;5.78;;;6.50;99.90;;;;;;6066608;23;20409;-81
2023/01/08 09:32:08;;;;;;;6.10;5.70;;;6.50;99.90;;;;;;6091793;23;20432;-81
2023/01/08 09:34:35;;;;;;;5.35;5.05;;;6.50;99.90;;;;;;6066962;23;20401;-81
2023/01/08 09:37:03;;;;;;;4.97;4.68;;;6.50;99.90;;;;;;6067945;23;20385;-81
2023/01/08 09:39:30;;;;;;;5.25;4.95;;;6.40;99.90;;;;;;6066191;23;20385;-81
2023/01/08 09:42:00;;;;;;;5.13;4.72;;;6.40;99.90;;;;;;6067659;23;20386;-81
2023/01/08 09:44:35;;;;;;;4.65;4.35;;;6.40;99.90;;;;;;6090882;23;20456;-81
2023/01/08 09:47:03;;;;;;;4.20;4.00;;;6.40;99.90;;;;;;6068157;23;20381;-81
2023/01/08 09:49:40;;;;;;;4.50;4.30;;;6.40;99.90;;;;;;6066631;23;20373;-82
2023/01/08 09:52:11;;;;;;;4.25;4.05;;;6.40;99.90;;;;;;6067807;23;20377;-81
2023/01/08 09:54:39;;;;;;;4.13;3.92;;;6.40;99.90;;;;;;6066585;23;20397;-81
2023/01/08 09:57:19;;;;;;;4.00;3.80;;;6.50;99.90;;;;;;6067284;23;20390;-81
2023/01/08 09:59:48;;;;;;;3.92;3.72;;;6.50;99.90;;;;;;6066508;23;20774;-81
2023/01/08 10:02:20;;;;;;;4.22;4.03;;;6.50;99.90;;;;;;6067431;23;20416;-81
2023/01/08 10:04:55;;;;;;;4.38;4.18;;;6.50;99.90;;;;;;6090972;23;20448;-81
2023/01/08 10:07:24;;;;;;;4.55;4.35;;;6.50;99.90;;;;;;6092781;23;20440;-80
2023/01/08 10:09:53;;;;;;;3.90;3.70;;;6.50;99.90;;;;;;6067271;23;20442;-80
2023/01/08 10:12:31;;;;;;;4.35;4.07;;;6.60;99.90;;;;;;6066813;23;20440;-80
2023/01/08 10:15:12;;;;;;;4.50;4.20;;;6.60;99.90;;;;;;6067451;23;20710;-81
2023/01/08 10:17:41;;;;;;;4.78;4.53;;;6.60;99.90;;;;;;6066132;23;20389;-80
2023/01/08 10:20:18;;;;;;;4.90;4.60;;;6.60;99.90;;;;;;6066321;23;20369;-80
2023/01/08 10:22:49;;;;;;;4.68;4.38;;;6.60;99.90;;;;;;6064682;23;20393;-79
2023/01/08 10:25:19;;;;;;;4.40;4.15;;;6.70;99.90;;;;;;6066453;23;20429;-79
2023/01/08 10:27:51;;;;;;;4.43;4.10;;;6.60;99.90;;;;;;6066099;23;20408;-80
2023/01/08 10:30:22;;;;;;;4.00;3.80;;;6.70;99.90;;;;;;6067175;23;20373;-79
2023/01/08 10:32:54;;;;;;;4.07;3.88;;;6.70;99.90;;;;;;6065567;23;20699;-80
2023/01/08 10:35:30;;;;;;;2.80;2.70;;;6.70;99.90;;;;;;6064803;23;20885;-80
2023/01/08 10:37:57;;;;;;;2.88;2.70;;;6.70;99.90;;;;;;6064677;23;20401;-80
2023/01/08 10:40:47;;;;;;;3.07;2.87;;;6.80;99.90;;;;;;6065999;23;20382;-80
2023/01/08 10:43:21;;;;;;;3.10;2.90;;;6.80;99.90;;;;;;6090681;23;20684;-79
2023/01/08 10:46:16;;;;;;;2.03;1.92;;;6.90;99.90;;;;;;6064592;23;20389;-80
2023/01/08 10:48:54;;;;;;;2.50;2.30;;;6.90;99.90;;;;;;6065135;23;20424;-80
2023/01/08 10:51:26;;;;;;;2.30;2.20;;;7.00;99.90;;;;;;6066221;23;20381;-79
2023/01/08 10:53:57;;;;;;;2.17;2.08;;;7.00;99.90;;;;;;6067199;23;20558;-80
2023/01/08 10:56:26;;;;;;;2.20;2.10;;;7.00;99.90;;;;;;6067114;23;20390;-79
2023/01/08 10:58:54;;;;;;;1.67;1.58;;;7.00;99.90;;;;;;6067951;23;20404;-79
2023/01/08 11:01:29;;;;;;;1.85;1.75;;;7.10;99.90;;;;;;6066690;23;20374;-82
2023/01/08 11:04:02;;;;;;;1.88;1.77;;;7.10;99.90;;;;;;6092896;23;20377;-79
2023/01/08 11:06:37;;;;;;;1.75;1.65;;;7.10;99.90;;;;;;6066760;23;20381;-79
2023/01/08 11:09:16;;;;;;;1.60;1.50;;;7.10;99.90;;;;;;6067964;23;20762;-79
2023/01/08 11:11:43;;;;;;;1.67;1.58;;;7.10;99.90;;;;;;6067298;23;20373;-79
2023/01/08 11:14:23;;;;;;;1.90;1.80;;;7.10;99.90;;;;;;6067973;23;20468;-79
2023/01/08 11:16:50;;;;;;;2.00;1.90;;;7.10;99.90;;;;;;6067084;23;20415;-79
2023/01/08 11:19:23;;;;;;;1.95;1.85;;;7.00;99.90;;;;;;6093588;23;20381;-80
2023/01/08 11:22:17;;;;;;;2.00;1.90;;;7.00;99.90;;;;;;6068589;23;20381;-79
2023/01/08 11:24:45;;;;;;;2.30;2.20;;;7.00;99.90;;;;;;6085044;23;20397;-79
2023/01/08 11:27:11;;;;;;;2.05;1.92;;;7.00;99.90;;;;;;6069381;23;20437;-79
2023/01/08 11:29:56;;;;;;;2.10;2.00;;;7.10;99.90;;;;;;6093401;23;20817;-79
2023/01/08 11:32:36;;;;;;;1.70;1.60;;;7.10;99.90;;;;;;6069362;23;20385;-79
2023/01/08 11:35:27;;;;;;;1.85;1.75;;;7.10;99.90;;;;;;6063572;23;20366;-79
2023/01/08 11:37:59;;;;;;;1.80;1.70;;;7.20;99.90;;;;;;6084035;23;20381;-79
2023/01/08 11:40:43;;;;;;;1.55;1.45;;;7.10;99.90;;;;;;6069221;23;20845;-79
2023/01/08 11:43:15;;;;;;;1.73;1.63;;;7.20;99.90;;;;;;6066084;23;20397;-80
2023/01/08 11:45:53;;;;;;;1.80;1.70;;;7.30;99.90;;;;;;6067975;23;20377;-79
2023/01/08 11:48:46;;;;;;;1.70;1.60;;;7.20;99.90;;;;;;6066957;23;20751;-79
2023/01/08 11:51:34;;;;;;;1.87;1.77;;;7.30;99.90;;;;;;6067423;23;20412;-79
2023/01/08 11:54:25;;;;;;;1.70;1.60;;;7.30;99.90;;;;;;6067736;23;20469;-79
2023/01/08 11:57:22;;;;;;;1.63;1.52;;;7.30;99.90;;;;;;6093242;23;20411;-79
2023/01/08 12:00:17;;;;;;;1.63;1.53;;;7.30;99.90;;;;;;6067030;23;20953;-79
2023/01/08 12:02:58;;;;;;;1.50;1.45;;;7.30;99.90;;;;;;6092797;23;20418;-78
2023/01/08 12:05:37;;;;;;;1.73;1.63;;;7.30;99.90;;;;;;6068896;23;20418;-80
2023/01/08 12:08:17;;;;;;;1.38;1.33;;;7.30;99.90;;;;;;6093441;23;20377;-79
2023/01/08 12:10:46;;;;;;;1.30;1.30;;;7.30;99.90;;;;;;6067734;23;20456;-79
2023/01/08 12:13:20;;;;;;;1.60;1.50;;;7.30;99.90;;;;;;6068827;23;20714;-79
2023/01/08 12:15:59;;;;;;;1.50;1.40;;;7.30;99.90;;;;;;6067528;23;20432;-81
2023/01/08 12:19:09;;;;;;;1.38;1.38;;;7.30;99.90;;;;;;6068413;23;20374;-79
2023/01/08 12:22:07;;;;;;;1.57;1.50;;;7.30;99.90;;;;;;6067524;23;20369;-80
2023/01/08 12:24:54;;;;;;;1.20;1.20;;;7.30;99.90;;;;;;6057577;23;20369;-80
2023/01/08 12:27:46;;;;;;;1.10;1.10;;;7.30;99.90;;;;;;6092696;23;20759;-80
2023/01/08 12:30:47;;;;;;;1.40;1.30;;;7.20;99.90;;;;;;6070051;23;20373;-79
2023/01/08 12:33:26;;;;;;;1.30;1.23;;;7.20;99.90;;;;;;6066948;23;20457;-79
2023/01/08 12:35:57;;;;;;;1.65;1.55;;;7.20;99.90;;;;;;6067794;23;20373;-80
2023/01/08 12:38:36;;;;;;;1.30;1.30;;;7.20;99.90;;;;;;6091234;23;20420;-79
2023/01/08 12:41:17;;;;;;;1.50;1.40;;;7.20;99.90;;;;;;6062888;23;20373;-80
2023/01/08 12:44:10;;;;;;;1.50;1.40;;;7.20;99.90;;;;;;6066075;23;20388;-80
2023/01/08 12:46:44;;;;;;;1.25;1.25;;;7.20;99.90;;;;;;6067641;23;20385;-80
2023/01/08 12:49:16;;;;;;;1.37;1.27;;;7.20;99.90;;;;;;6068670;23;20897;-79
2023/01/08 12:52:01;;;;;;;1.23;1.23;;;7.20;99.90;;;;;;6090748;23;20483;-80
2023/01/08 12:54:33;;;;;;;1.40;1.30;;;7.20;99.90;;;;;;6067304;23;20388;-79
2023/01/08 12:57:06;;;;;;;1.23;1.15;;;7.20;99.90;;;;;;6068322;23;20385;-79
2023/01/08 12:59:55;;;;;;;1.40;1.40;;;7.20;99.90;;;;;;6066192;23;20593;-80
2023/01/08 13:02:43;;;;;;;1.30;1.30;;;7.20;99.90;;;;;;6067031;23;20381;-79
2023/01/08 13:05:28;;;;;;;1.35;1.33;;;7.20;99.90;;;;;;6068380;23;20412;-79
2023/01/08 13:08:17;;;;;;;1.25;1.25;;;7.20;99.90;;;;;;6067511;23;20429;-79
2023/01/08 13:10:53;;;;;;;1.30;1.30;;;7.20;99.90;;;;;;6067608;23;20440;-80
2023/01/08 13:13:43;;;;;;;1.60;1.50;;;7.20;99.90;;;;;;6068324;23;20374;-80
2023/01/08 13:16:10;;;;;;;1.42;1.42;;;7.20;99.90;;;;;;6067601;23;20369;-79
2023/01/08 13:18:37;;;;;;;1.50;1.40;;;7.20;99.90;;;;;;6068356;23;20391;-79
2023/01/08 13:21:06;;;;;;;1.00;1.00;;;7.20;99.90;;;;;;6067144;23;20433;-80
2023/01/08 13:23:34;;;;;;;1.23;1.20;;;7.20;99.90;;;;;;6068318;23;20423;-80
2023/01/08 13:26:04;;;;;;;1.17;1.17;;;7.10;99.90;;;;;;6092422;23;20417;-81
2023/01/08 13:28:43;;;;;;;1.17;1.17;;;7.10;99.90;;;;;;6068168;23;20709;-79
2023/01/08 13:31:20;;;;;;;1.30;1.30;;;7.10;99.90;;;;;;6091490;23;20376;-80
2023/01/08 13:33:51;;;;;;;1.30;1.30;;;7.10;99.90;;;;;;6067043;23;20754;-79
2023/01/08 13:36:19;;;;;;;1.15;1.10;;;7.10;99.90;;;;;;6068175;23;20369;-80
2023/01/08 13:39:10;;;;;;;1.20;1.10;;;7.10;99.90;;;;;;6092326;23;20747;-80
2023/01/08 13:41:44;;;;;;;1.10;1.10;;;7.20;99.90;;;;;;6065370;23;20901;-81
2023/01/08 13:44:26;;;;;;;1.65;1.20;;;7.20;99.90;;;;;;6091391;23;20436;-80
2023/01/08 13:46:59;;;;;;;1.20;1.20;;;7.30;99.90;;;;;;6091828;23;20405;-79
2023/01/08 13:49:55;;;;;;;1.27;1.25;;;7.20;99.90;;;;;;6091377;23;20377;-80
2023/01/08 13:52:44;;;;;;;1.48;1.40;;;7.30;99.90;;;;;;6068299;23;20374;-79